sensor_id;sensor_type;location;lat;lon;timestamp;temperature;humidity
38209;DHT22;24016;52.102;11.584;2023-08-07T00:00:21;13.80;99.90
38209;DHT22;24016;52.102;11.584;2023-08-07T00:02:47;13.80;99.90
38209;DHT22;24016;52.102;11.584;2023-08-07T00:05:12;13.80;99.90
38209;DHT22;24016;52.102;11.584;2023-08-07T00:07:38;13.80;99.90
38209;DHT22;24016;52.102;11.584;2023-08-07T00:10:04;13.80;99.90
38209;DHT22;24016;52.102;11.584;2023-08-07T00:12:30;13.70;99.90
38209;DHT22;24016;52.102;11.584;2023-08-07T00:14:55;13.70;99.90
38209;DHT22;24016;52.102;11.584;2023-08-07T00:17:21;13.70;99.90
38209;DHT22;24016;52.102;11.584;2023-08-07T00:19:46;13.80;99.90
38209;DHT22;24016;52.102;11.584;2023-08-07T00:22:12;13.70;99.90
38209;DHT22;24016;52.102;11.584;2023-08-07T00:24:37;13.70;99.90
38209;DHT22;24016;52.102;11.584;2023-08-07T00:27:03;13.60;99.90
38209;DHT22;24016;52.102;11.584;2023-08-07T00:29:29;13.60;99.90
38209;DHT22;24016;52.102;11.584;2023-08-07T00:31:54;13.60;99.90
38209;DHT22;24016;52.102;11.584;2023-08-07T00:34:20;13.60;99.90
38209;DHT22;24016;52.102;11.584;2023-08-07T00:36:45;13.60;99.90
38209;DHT22;24016;52.102;11.584;2023-08-07T00:39:11;13.50;99.90
38209;DHT22;24016;52.102;11.584;2023-08-07T00:41:37;13.60;99.90
38209;DHT22;24016;52.102;11.584;2023-08-07T00:44:02;13.50;99.90
38209;DHT22;24016;52.102;11.584;2023-08-07T00:46:29;13.50;99.90
38209;DHT22;24016;52.102;11.584;2023-08-07T00:48:55;13.50;99.90
38209;DHT22;24016;52.102;11.584;2023-08-07T00:51:22;13.50;99.90
38209;DHT22;24016;52.102;11.584;2023-08-07T00:53:49;13.50;99.90
38209;DHT22;24016;52.102;11.584;2023-08-07T00:56:14;13.50;99.90
38209;DHT22;24016;52.102;11.584;2023-08-07T00:58:40;13.50;99.90
38209;DHT22;24016;52.102;11.584;2023-08-07T01:01:07;13.50;99.90
38209;DHT22;24016;52.102;11.584;2023-08-07T01:03:32;13.50;99.90
38209;DHT22;24016;52.102;11.584;2023-08-07T01:05:58;13.50;99.90
38209;DHT22;24016;52.102;11.584;2023-08-07T01:08:24;13.50;99.90
38209;DHT22;24016;52.102;11.584;2023-08-07T01:13:54;13.40;99.90
38209;DHT22;24016;52.102;11.584;2023-08-07T01:16:45;13.40;99.90
38209;DHT22;24016;52.102;11.584;2023-08-07T01:19:24;13.40;99.90
38209;DHT22;24016;52.102;11.584;2023-08-07T01:21:54;13.40;99.90
38209;DHT22;24016;52.102;11.584;2023-08-07T01:24:28;13.30;99.90
38209;DHT22;24016;52.102;11.584;2023-08-07T01:26:57;13.30;99.90
38209;DHT22;24016;52.102;11.584;2023-08-07T01:29:40;13.30;99.90
38209;DHT22;24016;52.102;11.584;2023-08-07T01:32:10;13.30;99.90
38209;DHT22;24016;52.102;11.584;2023-08-07T01:34:38;13.30;99.90
38209;DHT22;24016;52.102;11.584;2023-08-07T01:37:06;13.30;99.90
38209;DHT22;24016;52.102;11.584;2023-08-07T01:39:33;13.40;99.90
38209;DHT22;24016;52.102;11.584;2023-08-07T01:42:00;13.40;99.90
38209;DHT22;24016;52.102;11.584;2023-08-07T01:44:28;13.40;99.90
38209;DHT22;24016;52.102;11.584;2023-08-07T01:46:53;13.30;99.90
38209;DHT22;24016;52.102;11.584;2023-08-07T01:49:19;13.30;99.90
38209;DHT22;24016;52.102;11.584;2023-08-07T01:51:44;13.30;99.90
38209;DHT22;24016;52.102;11.584;2023-08-07T01:54:10;13.30;99.90
38209;DHT22;24016;52.102;11.584;2023-08-07T01:56:35;13.20;99.90
38209;DHT22;24016;52.102;11.584;2023-08-07T01:59:01;13.20;99.90
38209;DHT22;24016;52.102;11.584;2023-08-07T02:01:27;13.30;99.90
38209;DHT22;24016;52.102;11.584;2023-08-07T02:03:52;13.30;99.90
38209;DHT22;24016;52.102;11.584;2023-08-07T02:06:18;13.30;99.90
38209;DHT22;24016;52.102;11.584;2023-08-07T02:08:44;13.30;99.90
38209;DHT22;24016;52.102;11.584;2023-08-07T02:11:09;13.30;99.90
38209;DHT22;24016;52.102;11.584;2023-08-07T02:13:35;13.30;99.90
38209;DHT22;24016;52.102;11.584;2023-08-07T02:16:00;13.30;99.90
38209;DHT22;24016;52.102;11.584;2023-08-07T02:18:26;13.20;99.90
38209;DHT22;24016;52.102;11.584;2023-08-07T02:20:51;13.20;99.90
38209;DHT22;24016;52.102;11.584;2023-08-07T02:23:17;13.20;99.90
38209;DHT22;24016;52.102;11.584;2023-08-07T02:25:43;13.20;99.90
38209;DHT22;24016;52.102;11.584;2023-08-07T02:28:10;13.20;99.90
38209;DHT22;24016;52.102;11.584;2023-08-07T02:30:36;13.20;99.90
38209;DHT22;24016;52.102;11.584;2023-08-07T02:33:02;13.20;99.90
38209;DHT22;24016;52.102;11.584;2023-08-07T02:35:27;13.20;99.90
38209;DHT22;24016;52.102;11.584;2023-08-07T02:37:53;13.20;99.90
38209;DHT22;24016;52.102;11.584;2023-08-07T02:40:18;13.30;99.90
38209;DHT22;24016;52.102;11.584;2023-08-07T02:42:44;13.30;99.90
38209;DHT22;24016;52.102;11.584;2023-08-07T02:45:10;13.40;99.90
38209;DHT22;24016;52.102;11.584;2023-08-07T02:47:36;13.50;99.90
38209;DHT22;24016;52.102;11.584;2023-08-07T02:50:01;13.50;99.90
38209;DHT22;24016;52.102;11.584;2023-08-07T02:52:27;13.50;99.90
38209;DHT22;24016;52.102;11.584;2023-08-07T02:54:53;13.60;99.90
38209;DHT22;24016;52.102;11.584;2023-08-07T02:57:19;13.60;99.90
38209;DHT22;24016;52.102;11.584;2023-08-07T02:59:44;13.60;99.90
38209;DHT22;24016;52.102;11.584;2023-08-07T03:02:10;13.60;99.90
38209;DHT22;24016;52.102;11.584;2023-08-07T03:04:35;13.70;99.90
38209;DHT22;24016;52.102;11.584;2023-08-07T03:07:01;13.70;99.90
38209;DHT22;24016;52.102;11.584;2023-08-07T03:09:27;13.60;99.90
38209;DHT22;24016;52.102;11.584;2023-08-07T03:11:52;13.60;99.90
38209;DHT22;24016;52.102;11.584;2023-08-07T03:14:18;13.60;99.90
38209;DHT22;24016;52.102;11.584;2023-08-07T03:16:45;13.60;99.90
38209;DHT22;24016;52.102;11.584;2023-08-07T03:19:10;13.50;99.90
38209;DHT22;24016;52.102;11.584;2023-08-07T03:21:36;13.50;99.90
38209;DHT22;24016;52.102;11.584;2023-08-07T03:24:02;13.50;99.90
38209;DHT22;24016;52.102;11.584;2023-08-07T03:26:27;13.50;99.90
38209;DHT22;24016;52.102;11.584;2023-08-07T03:28:53;13.50;99.90
38209;DHT22;24016;52.102;11.584;2023-08-07T03:31:18;13.50;99.90
38209;DHT22;24016;52.102;11.584;2023-08-07T03:33:44;13.50;99.90
38209;DHT22;24016;52.102;11.584;2023-08-07T03:36:09;13.50;99.90
38209;DHT22;24016;52.102;11.584;2023-08-07T03:38:35;13.50;99.90
38209;DHT22;24016;52.102;11.584;2023-08-07T03:41:01;13.50;99.90
38209;DHT22;24016;52.102;11.584;2023-08-07T03:43:26;13.50;99.90
38209;DHT22;24016;52.102;11.584;2023-08-07T03:45:55;13.50;99.90
38209;DHT22;24016;52.102;11.584;2023-08-07T03:48:24;13.60;99.90
38209;DHT22;24016;52.102;11.584;2023-08-07T03:50:49;13.60;99.90
38209;DHT22;24016;52.102;11.584;2023-08-07T03:53:15;13.60;99.90
38209;DHT22;24016;52.102;11.584;2023-08-07T03:55:41;13.60;99.90
38209;DHT22;24016;52.102;11.584;2023-08-07T03:58:07;13.60;99.90
38209;DHT22;24016;52.102;11.584;2023-08-07T04:00:33;13.60;99.90
38209;DHT22;24016;52.102;11.584;2023-08-07T04:02:59;13.60;99.90
38209;DHT22;24016;52.102;11.584;2023-08-07T04:05:25;13.60;99.90
38209;DHT22;24016;52.102;11.584;2023-08-07T04:07:50;13.60;99.90
38209;DHT22;24016;52.102;11.584;2023-08-07T04:10:16;13.70;99.90
38209;DHT22;24016;52.102;11.584;2023-08-07T04:12:41;13.70;99.90
38209;DHT22;24016;52.102;11.584;2023-08-07T04:15:07;13.70;99.90
38209;DHT22;24016;52.102;11.584;2023-08-07T04:17:34;13.80;99.90
38209;DHT22;24016;52.102;11.584;2023-08-07T04:19:59;13.80;99.90
38209;DHT22;24016;52.102;11.584;2023-08-07T04:22:25;13.80;99.90
38209;DHT22;24016;52.102;11.584;2023-08-07T04:24:50;13.90;99.90
38209;DHT22;24016;52.102;11.584;2023-08-07T04:27:16;13.90;99.90
38209;DHT22;24016;52.102;11.584;2023-08-07T04:29:42;13.90;99.90
38209;DHT22;24016;52.102;11.584;2023-08-07T04:32:07;14.00;99.90
38209;DHT22;24016;52.102;11.584;2023-08-07T04:34:34;14.00;99.90
38209;DHT22;24016;52.102;11.584;2023-08-07T04:37:00;14.00;99.90
38209;DHT22;24016;52.102;11.584;2023-08-07T04:39:26;14.10;99.90
38209;DHT22;24016;52.102;11.584;2023-08-07T04:41:52;14.10;99.90
38209;DHT22;24016;52.102;11.584;2023-08-07T04:44:17;14.10;99.90
38209;DHT22;24016;52.102;11.584;2023-08-07T04:46:43;14.10;99.90
38209;DHT22;24016;52.102;11.584;2023-08-07T04:49:08;14.10;99.90
38209;DHT22;24016;52.102;11.584;2023-08-07T04:51:34;14.20;99.90
38209;DHT22;24016;52.102;11.584;2023-08-07T04:54:00;14.20;99.90
38209;DHT22;24016;52.102;11.584;2023-08-07T04:56:25;14.20;99.90
38209;DHT22;24016;52.102;11.584;2023-08-07T04:58:51;14.20;99.90
38209;DHT22;24016;52.102;11.584;2023-08-07T05:01:16;14.20;99.90
38209;DHT22;24016;52.102;11.584;2023-08-07T05:03:42;14.30;99.90
38209;DHT22;24016;52.102;11.584;2023-08-07T05:06:08;14.20;99.90
38209;DHT22;24016;52.102;11.584;2023-08-07T05:08:33;14.30;99.90
38209;DHT22;24016;52.102;11.584;2023-08-07T05:10:59;14.30;99.90
38209;DHT22;24016;52.102;11.584;2023-08-07T05:13:24;14.40;99.90
38209;DHT22;24016;52.102;11.584;2023-08-07T05:15:50;14.30;99.90
38209;DHT22;24016;52.102;11.584;2023-08-07T05:18:15;14.40;99.90
38209;DHT22;24016;52.102;11.584;2023-08-07T05:20:42;14.30;99.90
38209;DHT22;24016;52.102;11.584;2023-08-07T05:23:08;14.40;99.90
38209;DHT22;24016;52.102;11.584;2023-08-07T05:25:33;14.30;99.90
38209;DHT22;24016;52.102;11.584;2023-08-07T05:27:59;14.40;99.90
38209;DHT22;24016;52.102;11.584;2023-08-07T05:30:24;14.40;99.90
38209;DHT22;24016;52.102;11.584;2023-08-07T05:32:50;14.50;99.90
38209;DHT22;24016;52.102;11.584;2023-08-07T05:35:16;14.60;99.90
38209;DHT22;24016;52.102;11.584;2023-08-07T05:37:41;14.60;99.90
38209;DHT22;24016;52.102;11.584;2023-08-07T05:40:07;14.70;99.90
38209;DHT22;24016;52.102;11.584;2023-08-07T05:42:33;14.70;99.90
38209;DHT22;24016;52.102;11.584;2023-08-07T05:44:59;14.70;99.90
38209;DHT22;24016;52.102;11.584;2023-08-07T05:47:25;14.80;99.90
38209;DHT22;24016;52.102;11.584;2023-08-07T05:49:50;14.70;99.90
38209;DHT22;24016;52.102;11.584;2023-08-07T05:52:17;14.80;99.90
38209;DHT22;24016;52.102;11.584;2023-08-07T05:54:43;14.80;99.90
38209;DHT22;24016;52.102;11.584;2023-08-07T05:57:08;14.80;99.90
38209;DHT22;24016;52.102;11.584;2023-08-07T05:59:34;14.80;99.90
38209;DHT22;24016;52.102;11.584;2023-08-07T06:02:00;14.90;99.90
38209;DHT22;24016;52.102;11.584;2023-08-07T06:04:26;14.90;99.90
38209;DHT22;24016;52.102;11.584;2023-08-07T06:06:51;15.00;99.90
38209;DHT22;24016;52.102;11.584;2023-08-07T06:09:17;15.00;99.90
38209;DHT22;24016;52.102;11.584;2023-08-07T06:11:43;15.10;99.90
38209;DHT22;24016;52.102;11.584;2023-08-07T06:14:09;15.20;99.90
38209;DHT22;24016;52.102;11.584;2023-08-07T06:16:35;15.30;99.90
38209;DHT22;24016;52.102;11.584;2023-08-07T06:19:00;15.30;99.90
38209;DHT22;24016;52.102;11.584;2023-08-07T06:21:26;15.30;99.90
38209;DHT22;24016;52.102;11.584;2023-08-07T06:23:54;15.30;99.90
38209;DHT22;24016;52.102;11.584;2023-08-07T06:26:19;15.10;99.90
38209;DHT22;24016;52.102;11.584;2023-08-07T06:28:45;14.90;99.90
38209;DHT22;24016;52.102;11.584;2023-08-07T06:31:11;14.80;99.90
38209;DHT22;24016;52.102;11.584;2023-08-07T06:33:37;14.80;99.90
38209;DHT22;24016;52.102;11.584;2023-08-07T06:36:04;14.80;99.90
38209;DHT22;24016;52.102;11.584;2023-08-07T06:38:30;14.80;99.90
38209;DHT22;24016;52.102;11.584;2023-08-07T06:40:56;14.90;99.90
38209;DHT22;24016;52.102;11.584;2023-08-07T06:43:22;14.90;99.90
38209;DHT22;24016;52.102;11.584;2023-08-07T06:45:52;14.90;99.90
38209;DHT22;24016;52.102;11.584;2023-08-07T06:48:18;14.90;99.90
38209;DHT22;24016;52.102;11.584;2023-08-07T06:50:43;15.00;99.90
38209;DHT22;24016;52.102;11.584;2023-08-07T06:53:10;14.90;99.90
38209;DHT22;24016;52.102;11.584;2023-08-07T06:55:35;14.90;99.90
38209;DHT22;24016;52.102;11.584;2023-08-07T06:58:01;14.90;99.90
38209;DHT22;24016;52.102;11.584;2023-08-07T07:00:26;15.00;99.90
38209;DHT22;24016;52.102;11.584;2023-08-07T07:02:52;15.00;99.90
38209;DHT22;24016;52.102;11.584;2023-08-07T07:05:18;15.10;99.90
38209;DHT22;24016;52.102;11.584;2023-08-07T07:07:44;15.10;99.90
38209;DHT22;24016;52.102;11.584;2023-08-07T07:10:09;15.20;99.90
38209;DHT22;24016;52.102;11.584;2023-08-07T07:12:36;15.30;99.90
38209;DHT22;24016;52.102;11.584;2023-08-07T07:15:02;15.30;99.90
38209;DHT22;24016;52.102;11.584;2023-08-07T07:17:28;15.50;99.90
38209;DHT22;24016;52.102;11.584;2023-08-07T07:19:53;15.50;99.90
38209;DHT22;24016;52.102;11.584;2023-08-07T07:22:19;15.60;99.90
38209;DHT22;24016;52.102;11.584;2023-08-07T07:24:44;15.60;99.90
38209;DHT22;24016;52.102;11.584;2023-08-07T07:27:10;15.60;99.90
38209;DHT22;24016;52.102;11.584;2023-08-07T07:29:36;15.60;99.90
38209;DHT22;24016;52.102;11.584;2023-08-07T07:32:02;15.60;99.90
38209;DHT22;24016;52.102;11.584;2023-08-07T07:34:28;15.60;99.90
38209;DHT22;24016;52.102;11.584;2023-08-07T07:36:53;15.50;99.90
38209;DHT22;24016;52.102;11.584;2023-08-07T07:39:19;15.50;99.90
38209;DHT22;24016;52.102;11.584;2023-08-07T07:41:45;15.40;99.90
38209;DHT22;24016;52.102;11.584;2023-08-07T07:44:11;15.40;99.90
38209;DHT22;24016;52.102;11.584;2023-08-07T07:46:36;15.30;99.90
38209;DHT22;24016;52.102;11.584;2023-08-07T07:49:02;15.30;99.90
38209;DHT22;24016;52.102;11.584;2023-08-07T07:51:29;15.20;99.90
38209;DHT22;24016;52.102;11.584;2023-08-07T07:53:55;15.10;99.90
38209;DHT22;24016;52.102;11.584;2023-08-07T07:56:20;15.10;99.90
38209;DHT22;24016;52.102;11.584;2023-08-07T07:58:46;15.00;99.90
38209;DHT22;24016;52.102;11.584;2023-08-07T08:01:11;15.00;99.90
38209;DHT22;24016;52.102;11.584;2023-08-07T08:03:37;15.10;99.90
38209;DHT22;24016;52.102;11.584;2023-08-07T08:06:02;15.20;99.90
38209;DHT22;24016;52.102;11.584;2023-08-07T08:08:28;15.20;99.90
38209;DHT22;24016;52.102;11.584;2023-08-07T08:10:54;15.30;99.90
38209;DHT22;24016;52.102;11.584;2023-08-07T08:13:19;15.40;99.90
38209;DHT22;24016;52.102;11.584;2023-08-07T08:15:45;15.40;99.90
38209;DHT22;24016;52.102;11.584;2023-08-07T08:18:11;15.40;99.90
38209;DHT22;24016;52.102;11.584;2023-08-07T08:20:37;15.60;99.90
38209;DHT22;24016;52.102;11.584;2023-08-07T08:23:04;15.70;99.90
38209;DHT22;24016;52.102;11.584;2023-08-07T08:25:30;15.80;99.90
38209;DHT22;24016;52.102;11.584;2023-08-07T08:27:55;16.10;99.90
38209;DHT22;24016;52.102;11.584;2023-08-07T08:30:21;16.20;99.90
38209;DHT22;24016;52.102;11.584;2023-08-07T08:32:47;16.30;99.90
38209;DHT22;24016;52.102;11.584;2023-08-07T08:35:13;16.40;99.90
38209;DHT22;24016;52.102;11.584;2023-08-07T08:37:38;16.50;99.90
38209;DHT22;24016;52.102;11.584;2023-08-07T08:40:04;16.50;99.90
38209;DHT22;24016;52.102;11.584;2023-08-07T08:42:32;16.60;99.90
38209;DHT22;24016;52.102;11.584;2023-08-07T08:44:59;16.70;99.90
38209;DHT22;24016;52.102;11.584;2023-08-07T08:47:29;16.80;99.90
38209;DHT22;24016;52.102;11.584;2023-08-07T08:50:07;16.90;99.90
38209;DHT22;24016;52.102;11.584;2023-08-07T08:52:33;17.00;99.90
38209;DHT22;24016;52.102;11.584;2023-08-07T08:55:01;17.00;99.90
38209;DHT22;24016;52.102;11.584;2023-08-07T08:57:27;17.00;99.90
38209;DHT22;24016;52.102;11.584;2023-08-07T08:59:53;17.10;99.90
38209;DHT22;24016;52.102;11.584;2023-08-07T09:02:19;17.30;99.90
38209;DHT22;24016;52.102;11.584;2023-08-07T09:04:45;17.40;99.90
38209;DHT22;24016;52.102;11.584;2023-08-07T09:07:12;17.60;99.90
38209;DHT22;24016;52.102;11.584;2023-08-07T09:09:39;17.80;99.90
38209;DHT22;24016;52.102;11.584;2023-08-07T09:12:13;17.70;99.90
38209;DHT22;24016;52.102;11.584;2023-08-07T09:14:41;17.60;99.90
38209;DHT22;24016;52.102;11.584;2023-08-07T09:17:08;17.40;99.90
38209;DHT22;24016;52.102;11.584;2023-08-07T09:19:34;17.40;99.90
38209;DHT22;24016;52.102;11.584;2023-08-07T09:22:00;17.70;99.90
38209;DHT22;24016;52.102;11.584;2023-08-07T09:24:25;18.00;99.90
38209;DHT22;24016;52.102;11.584;2023-08-07T09:26:51;18.20;99.90
38209;DHT22;24016;52.102;11.584;2023-08-07T09:29:18;18.40;99.90
38209;DHT22;24016;52.102;11.584;2023-08-07T09:31:45;18.60;99.90
38209;DHT22;24016;52.102;11.584;2023-08-07T09:34:11;18.70;99.90
38209;DHT22;24016;52.102;11.584;2023-08-07T09:36:39;19.30;99.90
38209;DHT22;24016;52.102;11.584;2023-08-07T09:39:06;19.80;99.90
38209;DHT22;24016;52.102;11.584;2023-08-07T09:41:32;19.90;99.90
38209;DHT22;24016;52.102;11.584;2023-08-07T09:43:58;19.80;99.90
38209;DHT22;24016;52.102;11.584;2023-08-07T09:46:25;19.70;99.90
38209;DHT22;24016;52.102;11.584;2023-08-07T09:48:52;19.50;99.90
38209;DHT22;24016;52.102;11.584;2023-08-07T09:51:17;19.50;99.90
38209;DHT22;24016;52.102;11.584;2023-08-07T09:53:43;19.30;99.90
38209;DHT22;24016;52.102;11.584;2023-08-07T09:56:08;19.00;99.90
38209;DHT22;24016;52.102;11.584;2023-08-07T09:58:34;19.10;99.90
38209;DHT22;24016;52.102;11.584;2023-08-07T10:01:03;19.10;99.90
38209;DHT22;24016;52.102;11.584;2023-08-07T10:03:35;19.80;99.90
38209;DHT22;24016;52.102;11.584;2023-08-07T10:06:00;20.60;99.90
38209;DHT22;24016;52.102;11.584;2023-08-07T10:08:26;20.80;99.90
38209;DHT22;24016;52.102;11.584;2023-08-07T10:10:53;20.30;99.90
38209;DHT22;24016;52.102;11.584;2023-08-07T10:13:19;20.40;99.90
38209;DHT22;24016;52.102;11.584;2023-08-07T10:15:45;20.80;99.90
38209;DHT22;24016;52.102;11.584;2023-08-07T10:18:11;21.30;99.90
38209;DHT22;24016;52.102;11.584;2023-08-07T10:20:38;21.70;99.90
38209;DHT22;24016;52.102;11.584;2023-08-07T10:23:08;22.00;99.90
38209;DHT22;24016;52.102;11.584;2023-08-07T10:25:40;22.00;99.90
38209;DHT22;24016;52.102;11.584;2023-08-07T10:28:10;22.30;99.90
38209;DHT22;24016;52.102;11.584;2023-08-07T10:30:38;22.40;99.90
38209;DHT22;24016;52.102;11.584;2023-08-07T10:33:06;21.70;99.90
38209;DHT22;24016;52.102;11.584;2023-08-07T10:35:33;21.10;99.90
38209;DHT22;24016;52.102;11.584;2023-08-07T10:38:06;20.50;99.90
38209;DHT22;24016;52.102;11.584;2023-08-07T10:40:32;19.80;99.90
38209;DHT22;24016;52.102;11.584;2023-08-07T10:43:11;19.00;99.90
38209;DHT22;24016;52.102;11.584;2023-08-07T10:45:37;18.70;99.90
38209;DHT22;24016;52.102;11.584;2023-08-07T10:48:07;18.50;99.90
38209;DHT22;24016;52.102;11.584;2023-08-07T10:50:34;18.40;99.90
38209;DHT22;24016;52.102;11.584;2023-08-07T10:53:03;18.00;99.90
38209;DHT22;24016;52.102;11.584;2023-08-07T10:55:45;17.40;99.90
38209;DHT22;24016;52.102;11.584;2023-08-07T10:58:32;17.20;99.90
38209;DHT22;24016;52.102;11.584;2023-08-07T11:03:53;17.30;99.90
38209;DHT22;24016;52.102;11.584;2023-08-07T11:06:25;17.10;99.90
38209;DHT22;24016;52.102;11.584;2023-08-07T11:08:52;17.00;99.90
38209;DHT22;24016;52.102;11.584;2023-08-07T11:11:17;16.90;99.90
38209;DHT22;24016;52.102;11.584;2023-08-07T11:13:43;16.90;99.90
38209;DHT22;24016;52.102;11.584;2023-08-07T11:16:09;16.90;99.90
38209;DHT22;24016;52.102;11.584;2023-08-07T11:18:35;17.10;99.90
38209;DHT22;24016;52.102;11.584;2023-08-07T11:21:07;17.60;99.90
38209;DHT22;24016;52.102;11.584;2023-08-07T11:23:33;18.00;99.90
38209;DHT22;24016;52.102;11.584;2023-08-07T11:25:58;18.30;99.90
38209;DHT22;24016;52.102;11.584;2023-08-07T11:28:24;18.20;99.90
38209;DHT22;24016;52.102;11.584;2023-08-07T11:30:53;18.30;99.90
38209;DHT22;24016;52.102;11.584;2023-08-07T11:33:24;18.50;99.90
38209;DHT22;24016;52.102;11.584;2023-08-07T11:35:51;18.50;99.90
38209;DHT22;24016;52.102;11.584;2023-08-07T11:38:33;18.50;99.90
38209;DHT22;24016;52.102;11.584;2023-08-07T11:41:04;18.40;99.90
38209;DHT22;24016;52.102;11.584;2023-08-07T11:43:31;19.00;99.90
38209;DHT22;24016;52.102;11.584;2023-08-07T11:45:58;19.60;99.90
38209;DHT22;24016;52.102;11.584;2023-08-07T11:48:26;20.40;99.90
38209;DHT22;24016;52.102;11.584;2023-08-07T11:50:53;21.00;99.90
38209;DHT22;24016;52.102;11.584;2023-08-07T11:53:23;22.00;99.90
38209;DHT22;24016;52.102;11.584;2023-08-07T11:56:00;22.80;99.90
38209;DHT22;24016;52.102;11.584;2023-08-07T11:58:27;22.80;99.90
38209;DHT22;24016;52.102;11.584;2023-08-07T12:00:54;22.30;99.90
38209;DHT22;24016;52.102;11.584;2023-08-07T12:03:28;21.80;99.90
38209;DHT22;24016;52.102;11.584;2023-08-07T12:05:55;21.10;99.90
38209;DHT22;24016;52.102;11.584;2023-08-07T12:08:21;20.20;99.90
38209;DHT22;24016;52.102;11.584;2023-08-07T12:11:08;19.20;99.90
38209;DHT22;24016;52.102;11.584;2023-08-07T12:13:41;18.10;99.90
38209;DHT22;24016;52.102;11.584;2023-08-07T12:16:07;17.40;99.90
38209;DHT22;24016;52.102;11.584;2023-08-07T12:18:34;17.10;99.90
38209;DHT22;24016;52.102;11.584;2023-08-07T12:21:03;17.20;99.90
38209;DHT22;24016;52.102;11.584;2023-08-07T12:23:35;17.20;99.90
38209;DHT22;24016;52.102;11.584;2023-08-07T12:26:02;16.90;99.90
38209;DHT22;24016;52.102;11.584;2023-08-07T12:28:27;16.60;99.90
38209;DHT22;24016;52.102;11.584;2023-08-07T12:30:53;16.60;99.90
38209;DHT22;24016;52.102;11.584;2023-08-07T12:33:19;16.80;99.90
38209;DHT22;24016;52.102;11.584;2023-08-07T12:35:45;17.40;99.90
38209;DHT22;24016;52.102;11.584;2023-08-07T12:38:11;18.80;99.90
38209;DHT22;24016;52.102;11.584;2023-08-07T12:40:39;19.80;99.90
38209;DHT22;24016;52.102;11.584;2023-08-07T12:43:05;20.60;99.90
38209;DHT22;24016;52.102;11.584;2023-08-07T12:45:30;20.60;99.90
38209;DHT22;24016;52.102;11.584;2023-08-07T12:47:56;19.70;99.90
38209;DHT22;24016;52.102;11.584;2023-08-07T12:50:22;18.90;99.90
38209;DHT22;24016;52.102;11.584;2023-08-07T12:52:47;18.20;99.90
38209;DHT22;24016;52.102;11.584;2023-08-07T12:55:13;17.60;99.90
38209;DHT22;24016;52.102;11.584;2023-08-07T12:57:42;16.90;99.90
38209;DHT22;24016;52.102;11.584;2023-08-07T13:00:10;16.50;99.90
38209;DHT22;24016;52.102;11.584;2023-08-07T13:02:39;16.60;99.90
38209;DHT22;24016;52.102;11.584;2023-08-07T13:05:05;17.00;99.90
38209;DHT22;24016;52.102;11.584;2023-08-07T13:07:31;17.20;99.90
38209;DHT22;24016;52.102;11.584;2023-08-07T13:09:56;17.20;99.90
38209;DHT22;24016;52.102;11.584;2023-08-07T13:12:22;17.20;99.90
38209;DHT22;24016;52.102;11.584;2023-08-07T13:14:48;17.10;99.90
38209;DHT22;24016;52.102;11.584;2023-08-07T13:17:14;17.10;99.90
38209;DHT22;24016;52.102;11.584;2023-08-07T13:19:39;17.40;99.90
38209;DHT22;24016;52.102;11.584;2023-08-07T13:22:05;18.20;99.90
38209;DHT22;24016;52.102;11.584;2023-08-07T13:24:30;19.50;99.90
38209;DHT22;24016;52.102;11.584;2023-08-07T13:26:56;20.70;99.90
38209;DHT22;24016;52.102;11.584;2023-08-07T13:29:21;21.00;99.90
38209;DHT22;24016;52.102;11.584;2023-08-07T13:31:47;21.30;99.90
38209;DHT22;24016;52.102;11.584;2023-08-07T13:34:13;21.40;99.90
38209;DHT22;24016;52.102;11.584;2023-08-07T13:36:39;21.30;99.90
38209;DHT22;24016;52.102;11.584;2023-08-07T13:39:05;20.40;99.90
38209;DHT22;24016;52.102;11.584;2023-08-07T13:41:31;19.60;99.90
38209;DHT22;24016;52.102;11.584;2023-08-07T13:43:58;19.00;99.90
38209;DHT22;24016;52.102;11.584;2023-08-07T13:46:26;18.40;99.90
38209;DHT22;24016;52.102;11.584;2023-08-07T13:48:51;18.20;99.90
38209;DHT22;24016;52.102;11.584;2023-08-07T13:51:17;18.50;99.90
38209;DHT22;24016;52.102;11.584;2023-08-07T13:53:43;19.10;99.90
38209;DHT22;24016;52.102;11.584;2023-08-07T13:56:10;19.30;99.90
38209;DHT22;24016;52.102;11.584;2023-08-07T13:58:41;18.80;99.90
38209;DHT22;24016;52.102;11.584;2023-08-07T14:01:07;18.20;99.90
38209;DHT22;24016;52.102;11.584;2023-08-07T14:03:34;17.90;99.90
38209;DHT22;24016;52.102;11.584;2023-08-07T14:06:00;18.10;99.90
38209;DHT22;24016;52.102;11.584;2023-08-07T14:08:25;18.30;99.90
38209;DHT22;24016;52.102;11.584;2023-08-07T14:10:51;18.30;99.90
38209;DHT22;24016;52.102;11.584;2023-08-07T14:13:17;18.30;99.90
38209;DHT22;24016;52.102;11.584;2023-08-07T14:15:42;18.20;99.90
38209;DHT22;24016;52.102;11.584;2023-08-07T14:18:08;18.20;99.90
38209;DHT22;24016;52.102;11.584;2023-08-07T14:20:34;18.20;99.90
38209;DHT22;24016;52.102;11.584;2023-08-07T14:23:00;18.30;99.90
38209;DHT22;24016;52.102;11.584;2023-08-07T14:25:29;18.00;99.90
38209;DHT22;24016;52.102;11.584;2023-08-07T14:27:54;17.80;99.90
38209;DHT22;24016;52.102;11.584;2023-08-07T14:30:20;17.80;99.90
38209;DHT22;24016;52.102;11.584;2023-08-07T14:32:46;18.10;99.90
38209;DHT22;24016;52.102;11.584;2023-08-07T14:35:13;18.50;99.90
38209;DHT22;24016;52.102;11.584;2023-08-07T14:37:39;18.90;99.90
38209;DHT22;24016;52.102;11.584;2023-08-07T14:40:05;19.20;99.90
38209;DHT22;24016;52.102;11.584;2023-08-07T14:42:31;19.30;99.90
38209;DHT22;24016;52.102;11.584;2023-08-07T14:44:56;19.40;99.90
38209;DHT22;24016;52.102;11.584;2023-08-07T14:47:22;19.40;99.90
38209;DHT22;24016;52.102;11.584;2023-08-07T14:49:47;19.30;99.90
38209;DHT22;24016;52.102;11.584;2023-08-07T14:52:13;19.00;99.90
38209;DHT22;24016;52.102;11.584;2023-08-07T14:54:38;18.70;99.90
38209;DHT22;24016;52.102;11.584;2023-08-07T14:57:04;18.50;99.90
38209;DHT22;24016;52.102;11.584;2023-08-07T14:59:30;18.30;99.90
38209;DHT22;24016;52.102;11.584;2023-08-07T15:01:56;18.30;99.90
38209;DHT22;24016;52.102;11.584;2023-08-07T15:04:21;18.40;99.90
38209;DHT22;24016;52.102;11.584;2023-08-07T15:06:47;18.50;99.90
38209;DHT22;24016;52.102;11.584;2023-08-07T15:09:16;18.20;99.90
38209;DHT22;24016;52.102;11.584;2023-08-07T15:11:42;17.90;99.90
38209;DHT22;24016;52.102;11.584;2023-08-07T15:14:08;17.70;99.90
38209;DHT22;24016;52.102;11.584;2023-08-07T15:16:33;17.40;99.90